sensor_id;sensor_type;location;lat;lon;timestamp;temperature;humidity
56016;DHT22;41894;51.016;4.672;2023-02-15T00:01:34;2.90;83.80
56016;DHT22;41894;51.016;4.672;2023-02-15T00:04:00;3.10;83.40
56016;DHT22;41894;51.016;4.672;2023-02-15T00:06:26;2.80;83.40
56016;DHT22;41894;51.016;4.672;2023-02-15T00:08:53;2.50;85.70
56016;DHT22;41894;51.016;4.672;2023-02-15T00:11:19;2.50;85.70
56016;DHT22;41894;51.016;4.672;2023-02-15T00:14:06;2.60;85.10
56016;DHT22;41894;51.016;4.672;2023-02-15T00:16:33;2.40;85.30
56016;DHT22;41894;51.016;4.672;2023-02-15T00:18:58;2.30;86.30
56016;DHT22;41894;51.016;4.672;2023-02-15T00:21:28;2.20;86.20
56016;DHT22;41894;51.016;4.672;2023-02-15T00:23:55;1.90;88.40
56016;DHT22;41894;51.016;4.672;2023-02-15T00:26:20;1.90;88.10
56016;DHT22;41894;51.016;4.672;2023-02-15T00:28:46;2.00;87.80
56016;DHT22;41894;51.016;4.672;2023-02-15T00:31:12;2.00;87.70
56016;DHT22;41894;51.016;4.672;2023-02-15T00:33:38;2.00;87.90
56016;DHT22;41894;51.016;4.672;2023-02-15T00:36:06;2.00;88.40
56016;DHT22;41894;51.016;4.672;2023-02-15T00:38:33;1.90;88.90
56016;DHT22;41894;51.016;4.672;2023-02-15T00:41:00;1.90;88.60
56016;DHT22;41894;51.016;4.672;2023-02-15T00:43:27;1.90;88.70
56016;DHT22;41894;51.016;4.672;2023-02-15T00:45:53;2.00;88.00
56016;DHT22;41894;51.016;4.672;2023-02-15T00:48:20;2.00;88.00
56016;DHT22;41894;51.016;4.672;2023-02-15T00:50:46;1.90;88.30
56016;DHT22;41894;51.016;4.672;2023-02-15T00:53:14;2.00;88.50
56016;DHT22;41894;51.016;4.672;2023-02-15T00:55:39;1.90;88.50
56016;DHT22;41894;51.016;4.672;2023-02-15T00:58:06;1.60;90.00
56016;DHT22;41894;51.016;4.672;2023-02-15T01:00:32;1.80;89.60
56016;DHT22;41894;51.016;4.672;2023-02-15T01:02:58;1.90;88.30
56016;DHT22;41894;51.016;4.672;2023-02-15T01:05:24;2.00;86.90
56016;DHT22;41894;51.016;4.672;2023-02-15T01:07:49;2.00;86.90
56016;DHT22;41894;51.016;4.672;2023-02-15T01:10:15;1.90;87.70
56016;DHT22;41894;51.016;4.672;2023-02-15T01:12:41;1.80;88.10
56016;DHT22;41894;51.016;4.672;2023-02-15T01:15:07;1.70;87.60
56016;DHT22;41894;51.016;4.672;2023-02-15T01:17:32;1.50;88.50
56016;DHT22;41894;51.016;4.672;2023-02-15T01:19:58;1.40;89.70
56016;DHT22;41894;51.016;4.672;2023-02-15T01:22:25;1.40;90.10
56016;DHT22;41894;51.016;4.672;2023-02-15T01:24:50;1.50;88.70
56016;DHT22;41894;51.016;4.672;2023-02-15T01:27:16;1.60;88.10
56016;DHT22;41894;51.016;4.672;2023-02-15T01:29:42;1.70;88.60
56016;DHT22;41894;51.016;4.672;2023-02-15T01:32:08;1.30;90.00
56016;DHT22;41894;51.016;4.672;2023-02-15T01:34:33;1.10;90.70
56016;DHT22;41894;51.016;4.672;2023-02-15T01:36:59;1.20;90.60
56016;DHT22;41894;51.016;4.672;2023-02-15T01:39:25;1.50;89.00
56016;DHT22;41894;51.016;4.672;2023-02-15T01:41:51;1.70;88.10
56016;DHT22;41894;51.016;4.672;2023-02-15T01:44:45;1.50;88.30
56016;DHT22;41894;51.016;4.672;2023-02-15T01:47:15;1.70;87.20
56016;DHT22;41894;51.016;4.672;2023-02-15T01:49:43;1.70;87.20
56016;DHT22;41894;51.016;4.672;2023-02-15T01:52:12;1.70;86.90
56016;DHT22;41894;51.016;4.672;2023-02-15T01:54:41;1.70;87.00
56016;DHT22;41894;51.016;4.672;2023-02-15T01:57:15;1.80;86.60
56016;DHT22;41894;51.016;4.672;2023-02-15T01:59:45;1.70;86.70
56016;DHT22;41894;51.016;4.672;2023-02-15T02:02:13;1.40;88.20
56016;DHT22;41894;51.016;4.672;2023-02-15T02:04:45;1.10;90.30
56016;DHT22;41894;51.016;4.672;2023-02-15T02:07:14;1.10;90.20
56016;DHT22;41894;51.016;4.672;2023-02-15T02:09:40;1.20;90.40
56016;DHT22;41894;51.016;4.672;2023-02-15T02:12:07;1.30;90.00
56016;DHT22;41894;51.016;4.672;2023-02-15T02:14:34;1.40;88.80
56016;DHT22;41894;51.016;4.672;2023-02-15T02:17:12;1.50;88.50
56016;DHT22;41894;51.016;4.672;2023-02-15T02:34:28;1.80;85.60
56016;DHT22;41894;51.016;4.672;2023-02-15T02:36:59;1.90;85.20
56016;DHT22;41894;51.016;4.672;2023-02-15T02:44:51;1.60;86.00
56016;DHT22;41894;51.016;4.672;2023-02-15T02:50:02;1.50;87.00
56016;DHT22;41894;51.016;4.672;2023-02-15T02:52:44;1.50;86.70
56016;DHT22;41894;51.016;4.672;2023-02-15T02:55:15;1.40;87.40
56016;DHT22;41894;51.016;4.672;2023-02-15T02:58:08;1.10;89.60
56016;DHT22;41894;51.016;4.672;2023-02-15T03:00:36;1.00;90.40
56016;DHT22;41894;51.016;4.672;2023-02-15T03:03:08;0.90;90.50
56016;DHT22;41894;51.016;4.672;2023-02-15T03:05:39;0.90;90.70
56016;DHT22;41894;51.016;4.672;2023-02-15T03:08:07;1.10;90.30
56016;DHT22;41894;51.016;4.672;2023-02-15T03:10:36;0.90;90.20
56016;DHT22;41894;51.016;4.672;2023-02-15T03:13:04;0.80;90.60
56016;DHT22;41894;51.016;4.672;2023-02-15T03:15:33;0.90;90.80
56016;DHT22;41894;51.016;4.672;2023-02-15T03:18:22;1.30;88.10
56016;DHT22;41894;51.016;4.672;2023-02-15T03:20:49;1.60;85.50
56016;DHT22;41894;51.016;4.672;2023-02-15T03:23:21;1.80;85.20
56016;DHT22;41894;51.016;4.672;2023-02-15T03:25:52;1.70;84.70
56016;DHT22;41894;51.016;4.672;2023-02-15T03:28:57;1.60;85.70
56016;DHT22;41894;51.016;4.672;2023-02-15T03:31:18;1.50;86.40
56016;DHT22;41894;51.016;4.672;2023-02-15T03:33:59;1.50;85.80
56016;DHT22;41894;51.016;4.672;2023-02-15T03:36:47;1.60;85.50
56016;DHT22;41894;51.016;4.672;2023-02-15T03:42:29;1.50;85.90
56016;DHT22;41894;51.016;4.672;2023-02-15T03:47:34;1.10;89.00
56016;DHT22;41894;51.016;4.672;2023-02-15T03:50:17;0.90;89.10
56016;DHT22;41894;51.016;4.672;2023-02-15T03:53:06;0.80;90.00
56016;DHT22;41894;51.016;4.672;2023-02-15T03:55:34;0.90;90.00
56016;DHT22;41894;51.016;4.672;2023-02-15T03:58:00;1.00;88.80
56016;DHT22;41894;51.016;4.672;2023-02-15T04:01:00;1.30;87.10
56016;DHT22;41894;51.016;4.672;2023-02-15T04:03:51;1.30;86.80
56016;DHT22;41894;51.016;4.672;2023-02-15T04:06:18;1.20;87.30
56016;DHT22;41894;51.016;4.672;2023-02-15T04:08:44;1.20;87.80
56016;DHT22;41894;51.016;4.672;2023-02-15T04:11:28;0.90;88.50
56016;DHT22;41894;51.016;4.672;2023-02-15T04:13:54;0.70;90.10
56016;DHT22;41894;51.016;4.672;2023-02-15T04:16:22;1.10;88.10
56016;DHT22;41894;51.016;4.672;2023-02-15T04:18:48;1.10;87.20
56016;DHT22;41894;51.016;4.672;2023-02-15T04:21:32;1.20;87.00
56016;DHT22;41894;51.016;4.672;2023-02-15T04:24:16;1.40;85.60
56016;DHT22;41894;51.016;4.672;2023-02-15T04:27:02;1.40;84.90
56016;DHT22;41894;51.016;4.672;2023-02-15T04:29:29;1.30;86.00
56016;DHT22;41894;51.016;4.672;2023-02-15T04:31:56;1.20;86.60
56016;DHT22;41894;51.016;4.672;2023-02-15T04:34:22;1.00;87.90
56016;DHT22;41894;51.016;4.672;2023-02-15T04:36:47;1.00;88.30
56016;DHT22;41894;51.016;4.672;2023-02-15T04:39:14;0.80;88.70
56016;DHT22;41894;51.016;4.672;2023-02-15T04:41:41;0.50;90.40
56016;DHT22;41894;51.016;4.672;2023-02-15T04:44:07;0.50;90.70
56016;DHT22;41894;51.016;4.672;2023-02-15T04:46:33;0.60;90.70
56016;DHT22;41894;51.016;4.672;2023-02-15T04:48:58;0.60;90.90
56016;DHT22;41894;51.016;4.672;2023-02-15T04:51:24;0.70;90.70
56016;DHT22;41894;51.016;4.672;2023-02-15T04:53:50;0.70;90.50
56016;DHT22;41894;51.016;4.672;2023-02-15T04:56:18;0.70;90.30
56016;DHT22;41894;51.016;4.672;2023-02-15T04:58:44;0.80;90.20
56016;DHT22;41894;51.016;4.672;2023-02-15T05:01:10;1.30;87.20
56016;DHT22;41894;51.016;4.672;2023-02-15T05:03:36;1.40;84.60
56016;DHT22;41894;51.016;4.672;2023-02-15T05:06:03;1.20;85.40
56016;DHT22;41894;51.016;4.672;2023-02-15T05:08:29;1.20;85.70
56016;DHT22;41894;51.016;4.672;2023-02-15T05:10:56;1.30;84.80
56016;DHT22;41894;51.016;4.672;2023-02-15T05:13:22;1.40;83.90
56016;DHT22;41894;51.016;4.672;2023-02-15T05:15:49;1.30;83.90
56016;DHT22;41894;51.016;4.672;2023-02-15T05:18:16;1.00;85.80
56016;DHT22;41894;51.016;4.672;2023-02-15T05:20:43;0.90;86.90
56016;DHT22;41894;51.016;4.672;2023-02-15T05:23:09;0.80;87.80
56016;DHT22;41894;51.016;4.672;2023-02-15T05:25:35;0.90;87.60
56016;DHT22;41894;51.016;4.672;2023-02-15T05:28:19;1.20;86.90
56016;DHT22;41894;51.016;4.672;2023-02-15T05:31:29;0.90;87.50
56016;DHT22;41894;51.016;4.672;2023-02-15T05:33:35;0.80;88.20
56016;DHT22;41894;51.016;4.672;2023-02-15T05:36:01;0.80;88.00
56016;DHT22;41894;51.016;4.672;2023-02-15T05:38:28;0.60;88.40
56016;DHT22;41894;51.016;4.672;2023-02-15T05:40:54;0.50;89.60
56016;DHT22;41894;51.016;4.672;2023-02-15T05:43:20;0.60;89.20
56016;DHT22;41894;51.016;4.672;2023-02-15T05:45:47;0.50;89.90
56016;DHT22;41894;51.016;4.672;2023-02-15T05:48:13;0.80;88.20
56016;DHT22;41894;51.016;4.672;2023-02-15T05:50:39;0.90;86.50
56016;DHT22;41894;51.016;4.672;2023-02-15T05:53:04;0.90;86.90
56016;DHT22;41894;51.016;4.672;2023-02-15T05:55:30;1.00;86.10
56016;DHT22;41894;51.016;4.672;2023-02-15T05:57:55;1.10;84.90
56016;DHT22;41894;51.016;4.672;2023-02-15T06:00:21;1.10;85.20
56016;DHT22;41894;51.016;4.672;2023-02-15T06:02:47;0.80;85.50
56016;DHT22;41894;51.016;4.672;2023-02-15T06:05:12;0.80;86.00
56016;DHT22;41894;51.016;4.672;2023-02-15T06:07:38;0.60;87.10
56016;DHT22;41894;51.016;4.672;2023-02-15T06:10:04;0.40;88.30
56016;DHT22;41894;51.016;4.672;2023-02-15T06:12:30;0.20;90.00
56016;DHT22;41894;51.016;4.672;2023-02-15T06:14:56;0.20;90.40
56016;DHT22;41894;51.016;4.672;2023-02-15T06:17:21;0.50;90.00
56016;DHT22;41894;51.016;4.672;2023-02-15T06:19:47;0.60;88.60
56016;DHT22;41894;51.016;4.672;2023-02-15T06:22:13;0.60;87.90
56016;DHT22;41894;51.016;4.672;2023-02-15T06:24:39;0.60;88.00
56016;DHT22;41894;51.016;4.672;2023-02-15T06:27:08;0.60;88.10
56016;DHT22;41894;51.016;4.672;2023-02-15T06:29:34;0.60;88.30
56016;DHT22;41894;51.016;4.672;2023-02-15T06:32:00;0.60;88.30
56016;DHT22;41894;51.016;4.672;2023-02-15T06:34:25;0.60;88.10
56016;DHT22;41894;51.016;4.672;2023-02-15T06:36:51;0.70;87.00
56016;DHT22;41894;51.016;4.672;2023-02-15T06:39:16;0.70;86.60
56016;DHT22;41894;51.016;4.672;2023-02-15T06:41:42;0.70;87.30
56016;DHT22;41894;51.016;4.672;2023-02-15T06:44:08;0.60;87.50
56016;DHT22;41894;51.016;4.672;2023-02-15T06:46:34;0.60;87.40
56016;DHT22;41894;51.016;4.672;2023-02-15T06:48:59;0.50;87.40
56016;DHT22;41894;51.016;4.672;2023-02-15T06:51:25;0.50;87.60
56016;DHT22;41894;51.016;4.672;2023-02-15T06:53:51;0.40;88.10
56016;DHT22;41894;51.016;4.672;2023-02-15T06:56:16;0.30;89.20
56016;DHT22;41894;51.016;4.672;2023-02-15T06:58:42;0.20;90.10
56016;DHT22;41894;51.016;4.672;2023-02-15T07:01:09;0.40;89.30
56016;DHT22;41894;51.016;4.672;2023-02-15T07:03:35;0.50;88.30
56016;DHT22;41894;51.016;4.672;2023-02-15T07:06:02;0.50;88.40
56016;DHT22;41894;51.016;4.672;2023-02-15T07:08:31;0.60;88.50
56016;DHT22;41894;51.016;4.672;2023-02-15T07:10:57;0.60;88.60
56016;DHT22;41894;51.016;4.672;2023-02-15T07:13:48;0.60;88.90
56016;DHT22;41894;51.016;4.672;2023-02-15T07:16:14;0.60;89.00
56016;DHT22;41894;51.016;4.672;2023-02-15T07:18:40;0.70;88.40
56016;DHT22;41894;51.016;4.672;2023-02-15T07:21:06;0.70;88.70
56016;DHT22;41894;51.016;4.672;2023-02-15T07:23:39;0.70;89.50
56016;DHT22;41894;51.016;4.672;2023-02-15T07:26:06;0.70;90.20
56016;DHT22;41894;51.016;4.672;2023-02-15T07:28:32;1.00;89.40
56016;DHT22;41894;51.016;4.672;2023-02-15T07:30:58;1.10;89.60
56016;DHT22;41894;51.016;4.672;2023-02-15T07:33:24;1.30;88.20
56016;DHT22;41894;51.016;4.672;2023-02-15T07:35:51;1.30;88.90
56016;DHT22;41894;51.016;4.672;2023-02-15T07:38:18;1.50;88.80
56016;DHT22;41894;51.016;4.672;2023-02-15T07:40:44;1.60;87.90
56016;DHT22;41894;51.016;4.672;2023-02-15T07:43:10;1.70;89.60
56016;DHT22;41894;51.016;4.672;2023-02-15T07:45:36;2.00;88.80
56016;DHT22;41894;51.016;4.672;2023-02-15T07:48:02;2.30;85.40
56016;DHT22;41894;51.016;4.672;2023-02-15T07:50:28;2.80;82.80
56016;DHT22;41894;51.016;4.672;2023-02-15T07:52:54;3.20;81.50
56016;DHT22;41894;51.016;4.672;2023-02-15T07:55:19;3.40;78.80
56016;DHT22;41894;51.016;4.672;2023-02-15T07:57:46;3.70;78.10
56016;DHT22;41894;51.016;4.672;2023-02-15T08:00:14;3.80;76.60
56016;DHT22;41894;51.016;4.672;2023-02-15T08:02:40;3.90;75.90
56016;DHT22;41894;51.016;4.672;2023-02-15T08:05:06;4.00;75.80
56016;DHT22;41894;51.016;4.672;2023-02-15T08:07:32;3.90;76.10
56016;DHT22;41894;51.016;4.672;2023-02-15T08:09:58;4.00;76.20
56016;DHT22;41894;51.016;4.672;2023-02-15T08:12:26;4.20;75.80
56016;DHT22;41894;51.016;4.672;2023-02-15T08:14:52;4.30;75.30
56016;DHT22;41894;51.016;4.672;2023-02-15T08:17:17;4.40;75.70
56016;DHT22;41894;51.016;4.672;2023-02-15T08:19:43;4.50;75.00
56016;DHT22;41894;51.016;4.672;2023-02-15T08:22:13;4.70;74.60
56016;DHT22;41894;51.016;4.672;2023-02-15T08:24:39;4.80;74.70
56016;DHT22;41894;51.016;4.672;2023-02-15T08:27:10;4.90;74.50
56016;DHT22;41894;51.016;4.672;2023-02-15T08:29:37;5.00;74.50
56016;DHT22;41894;51.016;4.672;2023-02-15T08:32:06;5.20;74.30
56016;DHT22;41894;51.016;4.672;2023-02-15T08:34:35;5.30;74.40
56016;DHT22;41894;51.016;4.672;2023-02-15T08:37:01;5.30;74.50
56016;DHT22;41894;51.016;4.672;2023-02-15T08:39:27;5.30;74.80
56016;DHT22;41894;51.016;4.672;2023-02-15T08:41:54;5.00;75.70
56016;DHT22;41894;51.016;4.672;2023-02-15T08:44:20;4.80;77.60
56016;DHT22;41894;51.016;4.672;2023-02-15T08:46:47;4.70;79.20
56016;DHT22;41894;51.016;4.672;2023-02-15T08:49:16;4.70;81.00
56016;DHT22;41894;51.016;4.672;2023-02-15T08:51:42;4.50;82.10
56016;DHT22;41894;51.016;4.672;2023-02-15T08:54:11;4.50;83.20
56016;DHT22;41894;51.016;4.672;2023-02-15T08:56:39;4.40;84.60
56016;DHT22;41894;51.016;4.672;2023-02-15T08:59:07;4.60;84.80
56016;DHT22;41894;51.016;4.672;2023-02-15T09:01:34;4.70;85.00
56016;DHT22;41894;51.016;4.672;2023-02-15T09:04:02;4.80;86.40
56016;DHT22;41894;51.016;4.672;2023-02-15T09:06:28;5.10;86.70
56016;DHT22;41894;51.016;4.672;2023-02-15T09:08:55;5.30;86.20
56016;DHT22;41894;51.016;4.672;2023-02-15T09:11:23;5.60;86.20
56016;DHT22;41894;51.016;4.672;2023-02-15T09:13:53;5.80;85.30
56016;DHT22;41894;51.016;4.672;2023-02-15T09:16:20;6.00;85.10
56016;DHT22;41894;51.016;4.672;2023-02-15T09:18:46;6.10;85.20
56016;DHT22;41894;51.016;4.672;2023-02-15T09:21:14;6.20;86.30
56016;DHT22;41894;51.016;4.672;2023-02-15T09:23:41;6.50;83.80
56016;DHT22;41894;51.016;4.672;2023-02-15T09:26:12;6.70;84.80
56016;DHT22;41894;51.016;4.672;2023-02-15T09:28:39;6.90;83.90
56016;DHT22;41894;51.016;4.672;2023-02-15T09:31:18;7.20;82.80
56016;DHT22;41894;51.016;4.672;2023-02-15T09:33:46;7.40;80.50
56016;DHT22;41894;51.016;4.672;2023-02-15T09:36:23;7.60;79.40
56016;DHT22;41894;51.016;4.672;2023-02-15T10:06:41;9.40;69.30
56016;DHT22;41894;51.016;4.672;2023-02-15T10:18:20;10.40;65.60
56016;DHT22;41894;51.016;4.672;2023-02-15T10:21:27;10.50;66.20
56016;DHT22;41894;51.016;4.672;2023-02-15T10:26:47;10.60;66.50
56016;DHT22;41894;51.016;4.672;2023-02-15T10:29:36;10.90;65.50
56016;DHT22;41894;51.016;4.672;2023-02-15T10:32:22;11.00;64.30
56016;DHT22;41894;51.016;4.672;2023-02-15T10:34:55;10.80;65.20
56016;DHT22;41894;51.016;4.672;2023-02-15T10:43:18;10.40;67.40
56016;DHT22;41894;51.016;4.672;2023-02-15T10:46:08;10.90;65.50
56016;DHT22;41894;51.016;4.672;2023-02-15T10:49:15;11.30;64.00
56016;DHT22;41894;51.016;4.672;2023-02-15T10:54:45;11.60;61.20
56016;DHT22;41894;51.016;4.672;2023-02-15T10:57:26;11.80;62.30
56016;DHT22;41894;51.016;4.672;2023-02-15T11:00:05;11.90;61.20
56016;DHT22;41894;51.016;4.672;2023-02-15T11:08:00;12.50;59.80
56016;DHT22;41894;51.016;4.672;2023-02-15T11:10:39;12.40;59.20
56016;DHT22;41894;51.016;4.672;2023-02-15T11:13:18;12.60;56.60
56016;DHT22;41894;51.016;4.672;2023-02-15T11:16:15;12.50;57.20
56016;DHT22;41894;51.016;4.672;2023-02-15T11:18:45;12.40;57.90
56016;DHT22;41894;51.016;4.672;2023-02-15T11:21:22;12.60;56.90
56016;DHT22;41894;51.016;4.672;2023-02-15T11:23:48;12.70;56.80
56016;DHT22;41894;51.016;4.672;2023-02-15T11:28:53;12.40;56.70
56016;DHT22;41894;51.016;4.672;2023-02-15T11:31:24;12.30;57.00
56016;DHT22;41894;51.016;4.672;2023-02-15T11:34:24;12.30;56.60
56016;DHT22;41894;51.016;4.672;2023-02-15T11:36:54;12.60;56.00
56016;DHT22;41894;51.016;4.672;2023-02-15T11:39:21;12.80;55.70
56016;DHT22;41894;51.016;4.672;2023-02-15T11:41:52;12.80;55.30
56016;DHT22;41894;51.016;4.672;2023-02-15T11:44:30;12.90;56.10
56016;DHT22;41894;51.016;4.672;2023-02-15T11:46:58;12.80;55.50
56016;DHT22;41894;51.016;4.672;2023-02-15T11:49:31;12.90;55.80
56016;DHT22;41894;51.016;4.672;2023-02-15T11:51:58;13.00;56.20
56016;DHT22;41894;51.016;4.672;2023-02-15T11:54:28;13.10;53.70
56016;DHT22;41894;51.016;4.672;2023-02-15T11:57:44;13.10;55.70
56016;DHT22;41894;51.016;4.672;2023-02-15T11:59:56;13.40;55.40
56016;DHT22;41894;51.016;4.672;2023-02-15T12:02:23;13.60;54.40
56016;DHT22;41894;51.016;4.672;2023-02-15T12:05:00;13.80;53.40
56016;DHT22;41894;51.016;4.672;2023-02-15T12:10:04;13.90;52.40
56016;DHT22;41894;51.016;4.672;2023-02-15T12:12:34;14.00;51.90
56016;DHT22;41894;51.016;4.672;2023-02-15T12:15:06;13.60;51.80
56016;DHT22;41894;51.016;4.672;2023-02-15T12:17:51;13.70;53.50
56016;DHT22;41894;51.016;4.672;2023-02-15T12:22:50;14.00;53.00
56016;DHT22;41894;51.016;4.672;2023-02-15T12:27:51;14.20;52.70
56016;DHT22;41894;51.016;4.672;2023-02-15T12:30:25;14.00;53.10
56016;DHT22;41894;51.016;4.672;2023-02-15T12:32:58;14.10;52.40
56016;DHT22;41894;51.016;4.672;2023-02-15T12:35:29;14.00;51.80
56016;DHT22;41894;51.016;4.672;2023-02-15T12:40:37;14.10;52.80
56016;DHT22;41894;51.016;4.672;2023-02-15T12:43:04;14.10;52.20
56016;DHT22;41894;51.016;4.672;2023-02-15T12:45:36;14.10;53.20
56016;DHT22;41894;51.016;4.672;2023-02-15T12:50:44;14.00;53.00
56016;DHT22;41894;51.016;4.672;2023-02-15T12:53:32;14.00;53.40
56016;DHT22;41894;51.016;4.672;2023-02-15T12:56:03;14.30;53.00
56016;DHT22;41894;51.016;4.672;2023-02-15T12:58:40;14.30;52.10
56016;DHT22;41894;51.016;4.672;2023-02-15T13:01:14;14.30;52.90
56016;DHT22;41894;51.016;4.672;2023-02-15T13:04:03;14.40;53.60
56016;DHT22;41894;51.016;4.672;2023-02-15T13:06:32;14.60;51.70
56016;DHT22;41894;51.016;4.672;2023-02-15T13:09:16;14.70;53.00
56016;DHT22;41894;51.016;4.672;2023-02-15T13:11:44;14.70;51.50
56016;DHT22;41894;51.016;4.672;2023-02-15T13:14:19;14.70;50.80
56016;DHT22;41894;51.016;4.672;2023-02-15T13:16:48;14.90;50.30
56016;DHT22;41894;51.016;4.672;2023-02-15T13:19:28;14.80;51.20
56016;DHT22;41894;51.016;4.672;2023-02-15T13:21:57;14.90;50.80
56016;DHT22;41894;51.016;4.672;2023-02-15T13:24:47;14.90;50.50
56016;DHT22;41894;51.016;4.672;2023-02-15T13:27:20;14.90;50.20
56016;DHT22;41894;51.016;4.672;2023-02-15T13:29:52;15.10;50.10
56016;DHT22;41894;51.016;4.672;2023-02-15T13:32:27;14.90;50.50
56016;DHT22;41894;51.016;4.672;2023-02-15T13:34:59;14.70;50.90
56016;DHT22;41894;51.016;4.672;2023-02-15T13:37:58;14.40;50.60
56016;DHT22;41894;51.016;4.672;2023-02-15T13:40:35;14.70;52.00
56016;DHT22;41894;51.016;4.672;2023-02-15T13:48:20;14.90;51.20
56016;DHT22;41894;51.016;4.672;2023-02-15T13:53:53;14.70;50.80
56016;DHT22;41894;51.016;4.672;2023-02-15T13:56:48;14.70;51.70
56016;DHT22;41894;51.016;4.672;2023-02-15T14:16:07;14.70;52.20
56016;DHT22;41894;51.016;4.672;2023-02-15T14:18:48;14.70;51.80
56016;DHT22;41894;51.016;4.672;2023-02-15T14:24:24;14.70;52.70
56016;DHT22;41894;51.016;4.672;2023-02-15T14:31:54;15.10;51.20
56016;DHT22;41894;51.016;4.672;2023-02-15T14:34:40;15.00;51.30
56016;DHT22;41894;51.016;4.672;2023-02-15T14:37:10;15.00;50.60
56016;DHT22;41894;51.016;4.672;2023-02-15T14:40:02;15.00;51.30
56016;DHT22;41894;51.016;4.672;2023-02-15T14:43:21;14.70;51.30
56016;DHT22;41894;51.016;4.672;2023-02-15T14:45:58;14.40;52.60
56016;DHT22;41894;51.016;4.672;2023-02-15T14:48:45;14.40;51.70
56016;DHT22;41894;51.016;4.672;2023-02-15T14:54:08;14.10;54.20
56016;DHT22;41894;51.016;4.672;2023-02-15T14:56:35;14.00;54.00
56016;DHT22;41894;51.016;4.672;2023-02-15T14:59:21;13.90;54.70
56016;DHT22;41894;51.016;4.672;2023-02-15T15:01:55;14.00;54.20
56016;DHT22;41894;51.016;4.672;2023-02-15T15:04:34;14.10;54.20
56016;DHT22;41894;51.016;4.672;2023-02-15T15:07:24;14.20;53.70
56016;DHT22;41894;51.016;4.672;2023-02-15T15:15:34;14.20;53.40
56016;DHT22;41894;51.016;4.672;2023-02-15T15:18:06;14.10;54.30
56016;DHT22;41894;51.016;4.672;2023-02-15T15:20:45;14.10;54.90
56016;DHT22;41894;51.016;4.672;2023-02-15T15:47:54;13.90;56.00
56016;DHT22;41894;51.016;4.672;2023-02-15T15:50:23;13.80;55.70
56016;DHT22;41894;51.016;4.672;2023-02-15T15:52:55;13.80;56.50
56016;DHT22;41894;51.016;4.672;2023-02-15T15:55:28;13.70;56.70
56016;DHT22;41894;51.016;4.672;2023-02-15T15:58:02;13.80;56.40
56016;DHT22;41894;51.016;4.672;2023-02-15T16:03:20;13.50;57.20
56016;DHT22;41894;51.016;4.672;2023-02-15T16:05:46;13.40;58.10
56016;DHT22;41894;51.016;4.672;2023-02-15T16:08:30;13.30;58.20
56016;DHT22;41894;51.016;4.672;2023-02-15T16:10:56;13.00;58.90
56016;DHT22;41894;51.016;4.672;2023-02-15T16:13:23;12.90;58.80
56016;DHT22;41894;51.016;4.672;2023-02-15T16:15:53;12.90;59.20
56016;DHT22;41894;51.016;4.672;2023-02-15T16:18:23;12.90;59.20
56016;DHT22;41894;51.016;4.672;2023-02-15T16:28:36;12.50;60.50
56016;DHT22;41894;51.016;4.672;2023-02-15T16:31:15;12.40;60.40
56016;DHT22;41894;51.016;4.672;2023-02-15T16:33:42;12.30;60.50
56016;DHT22;41894;51.016;4.672;2023-02-15T16:36:11;12.10;61.70
56016;DHT22;41894;51.016;4.672;2023-02-15T16:41:26;11.90;62.40
56016;DHT22;41894;51.016;4.672;2023-02-15T16:43:55;11.70;62.70
56016;DHT22;41894;51.016;4.672;2023-02-15T16:46:30;11.60;63.20
56016;DHT22;41894;51.016;4.672;2023-02-15T16:48:59;11.70;63.00
56016;DHT22;41894;51.016;4.672;2023-02-15T16:51:29;11.80;62.40
56016;DHT22;41894;51.016;4.672;2023-02-15T16:53:57;11.60;63.40
56016;DHT22;41894;51.016;4.672;2023-02-15T16:56:26;11.40;64.20
56016;DHT22;41894;51.016;4.672;2023-02-15T16:58:53;11.20;64.60
56016;DHT22;41894;51.016;4.672;2023-02-15T17:01:21;11.30;64.30
56016;DHT22;41894;51.016;4.672;2023-02-15T17:03:50;11.10;65.00
56016;DHT22;41894;51.016;4.672;2023-02-15T17:06:25;10.90;66.20
56016;DHT22;41894;51.016;4.672;2023-02-15T17:08:52;10.70;66.60
56016;DHT22;41894;51.016;4.672;2023-02-15T17:11:22;10.70;66.60
56016;DHT22;41894;51.016;4.672;2023-02-15T17:14:21;10.70;66.00
56016;DHT22;41894;51.016;4.672;2023-02-15T17:16:59;10.50;66.40
56016;DHT22;41894;51.016;4.672;2023-02-15T17:19:29;10.60;66.50
56016;DHT22;41894;51.016;4.672;2023-02-15T17:22:04;10.50;66.20
56016;DHT22;41894;51.016;4.672;2023-02-15T17:29:45;9.80;68.70
56016;DHT22;41894;51.016;4.672;2023-02-15T17:32:23;9.80;68.80
56016;DHT22;41894;51.016;4.672;2023-02-15T17:35:16;9.70;69.20
56016;DHT22;41894;51.016;4.672;2023-02-15T17:37:49;9.40;70.20
56016;DHT22;41894;51.016;4.672;2023-02-15T17:40:26;9.30;70.70
56016;DHT22;41894;51.016;4.672;2023-02-15T17:42:53;9.40;70.30
56016;DHT22;41894;51.016;4.672;2023-02-15T17:45:22;9.50;69.80
56016;DHT22;41894;51.016;4.672;2023-02-15T17:47:50;9.40;70.10
56016;DHT22;41894;51.016;4.672;2023-02-15T17:50:22;9.40;70.10
56016;DHT22;41894;51.016;4.672;2023-02-15T17:52:48;9.30;70.80
56016;DHT22;41894;51.016;4.672;2023-02-15T17:55:16;9.10;71.50
56016;DHT22;41894;51.016;4.672;2023-02-15T17:58:02;9.10;72.00
56016;DHT22;41894;51.016;4.672;2023-02-15T18:00:31;9.00;72.60
56016;DHT22;41894;51.016;4.672;2023-02-15T18:03:18;9.00;72.00
56016;DHT22;41894;51.016;4.672;2023-02-15T18:06:02;8.90;72.20
56016;DHT22;41894;51.016;4.672;2023-02-15T18:08:47;9.00;72.40
56016;DHT22;41894;51.016;4.672;2023-02-15T18:11:31;9.00;72.40
56016;DHT22;41894;51.016;4.672;2023-02-15T18:14:09;8.80;73.40
56016;DHT22;41894;51.016;4.672;2023-02-15T18:16:38;8.80;73.50
56016;DHT22;41894;51.016;4.672;2023-02-15T18:19:10;8.70;74.20
56016;DHT22;41894;51.016;4.672;2023-02-15T18:21:38;8.90;73.20
56016;DHT22;41894;51.016;4.672;2023-02-15T18:24:04;9.00;72.90
56016;DHT22;41894;51.016;4.672;2023-02-15T18:26:29;8.80;73.80
56016;DHT22;41894;51.016;4.672;2023-02-15T18:28:55;8.80;74.50
56016;DHT22;41894;51.016;4.672;2023-02-15T18:31:21;8.80;75.00
56016;DHT22;41894;51.016;4.672;2023-02-15T18:33:52;8.80;74.80
56016;DHT22;41894;51.016;4.672;2023-02-15T18:36:25;8.70;75.80
56016;DHT22;41894;51.016;4.672;2023-02-15T18:38:52;8.70;75.70
56016;DHT22;41894;51.016;4.672;2023-02-15T18:41:20;8.70;76.20
56016;DHT22;41894;51.016;4.672;2023-02-15T18:43:46;8.70;76.10
56016;DHT22;41894;51.016;4.672;2023-02-15T18:46:14;8.70;77.10
56016;DHT22;41894;51.016;4.672;2023-02-15T18:48:40;8.70;76.60
56016;DHT22;41894;51.016;4.672;2023-02-15T18:51:19;8.80;76.00
56016;DHT22;41894;51.016;4.672;2023-02-15T18:53:47;8.90;76.10
56016;DHT22;41894;51.016;4.672;2023-02-15T18:56:15;9.00;75.60
56016;DHT22;41894;51.016;4.672;2023-02-15T18:58:42;9.00;76.10
56016;DHT22;41894;51.016;4.672;2023-02-15T19:01:27;8.90;75.90
56016;DHT22;41894;51.016;4.672;2023-02-15T19:03:52;9.10;75.40
56016;DHT22;41894;51.016;4.672;2023-02-15T19:06:20;9.00;75.20
56016;DHT22;41894;51.016;4.672;2023-02-15T19:08:48;9.10;74.90
56016;DHT22;41894;51.016;4.672;2023-02-15T19:11:17;9.00;75.10